sensor_id;sensor_type;location;lat;lon;timestamp;pressure;altitude;pressure_sealevel;temperature;humidity
54194;BME280;40102;50.906;6.972;2023-04-09T00:02:10;101867.72;;;10.00;75.41
54194;BME280;40102;50.906;6.972;2023-04-09T00:04:35;101856.78;;;9.82;75.31
54194;BME280;40102;50.906;6.972;2023-04-09T00:07:01;101863.53;;;9.67;75.83
54194;BME280;40102;50.906;6.972;2023-04-09T00:09:26;101854.84;;;9.60;76.76
54194;BME280;40102;50.906;6.972;2023-04-09T00:11:51;101854.97;;;9.57;77.07
54194;BME280;40102;50.906;6.972;2023-04-09T00:14:17;101858.44;;;9.59;77.20
54194;BME280;40102;50.906;6.972;2023-04-09T00:16:42;101859.16;;;9.64;77.19
54194;BME280;40102;50.906;6.972;2023-04-09T00:19:08;101861.53;;;9.73;77.00
54194;BME280;40102;50.906;6.972;2023-04-09T00:21:33;101854.13;;;9.82;76.32
54194;BME280;40102;50.906;6.972;2023-04-09T00:23:58;101857.44;;;9.88;75.84
54194;BME280;40102;50.906;6.972;2023-04-09T00:26:24;101854.63;;;9.93;75.34
54194;BME280;40102;50.906;6.972;2023-04-09T00:28:50;101853.69;;;9.94;74.92
54194;BME280;40102;50.906;6.972;2023-04-09T00:31:15;101849.22;;;9.94;74.63
54194;BME280;40102;50.906;6.972;2023-04-09T00:33:41;101852.00;;;9.91;74.46
54194;BME280;40102;50.906;6.972;2023-04-09T00:36:07;101852.94;;;9.90;74.97
54194;BME280;40102;50.906;6.972;2023-04-09T00:38:33;101850.25;;;9.90;74.81
54194;BME280;40102;50.906;6.972;2023-04-09T00:40:59;101852.81;;;9.93;74.89
54194;BME280;40102;50.906;6.972;2023-04-09T00:43:25;101855.44;;;9.95;74.70
54194;BME280;40102;50.906;6.972;2023-04-09T00:45:51;101853.69;;;9.94;74.35
54194;BME280;40102;50.906;6.972;2023-04-09T00:48:16;101846.59;;;9.93;74.42
54194;BME280;40102;50.906;6.972;2023-04-09T00:50:42;101836.78;;;9.93;74.52
54194;BME280;40102;50.906;6.972;2023-04-09T00:53:08;101844.69;;;9.96;74.19
54194;BME280;40102;50.906;6.972;2023-04-09T00:55:34;101852.59;;;9.99;74.25
54194;BME280;40102;50.906;6.972;2023-04-09T00:58:01;101841.91;;;9.99;73.98
54194;BME280;40102;50.906;6.972;2023-04-09T01:00:27;101854.28;;;10.02;73.80
54194;BME280;40102;50.906;6.972;2023-04-09T01:02:55;101851.63;;;10.02;73.34
54194;BME280;40102;50.906;6.972;2023-04-09T01:05:23;101855.50;;;9.93;73.06
54194;BME280;40102;50.906;6.972;2023-04-09T01:08:03;101851.50;;;9.80;73.93
54194;BME280;40102;50.906;6.972;2023-04-09T01:10:38;101844.06;;;9.63;74.92
54194;BME280;40102;50.906;6.972;2023-04-09T01:13:13;101844.28;;;9.57;75.61
54194;BME280;40102;50.906;6.972;2023-04-09T01:15:47;101838.97;;;9.56;75.99
54194;BME280;40102;50.906;6.972;2023-04-09T01:18:20;101840.16;;;9.47;75.87
54194;BME280;40102;50.906;6.972;2023-04-09T01:20:53;101843.28;;;9.33;76.91
54194;BME280;40102;50.906;6.972;2023-04-09T01:28:25;101832.09;;;9.49;77.27
54194;BME280;40102;50.906;6.972;2023-04-09T01:31:06;101830.97;;;9.56;76.47
54194;BME280;40102;50.906;6.972;2023-04-09T01:33:33;101843.25;;;9.61;76.06
54194;BME280;40102;50.906;6.972;2023-04-09T01:36:00;101838.63;;;9.66;75.46
54194;BME280;40102;50.906;6.972;2023-04-09T01:38:26;101844.78;;;9.68;75.57
54194;BME280;40102;50.906;6.972;2023-04-09T01:40:53;101846.41;;;9.72;75.30
54194;BME280;40102;50.906;6.972;2023-04-09T01:43:19;101840.19;;;9.72;74.85
54194;BME280;40102;50.906;6.972;2023-04-09T01:45:46;101840.03;;;9.77;74.96
54194;BME280;40102;50.906;6.972;2023-04-09T01:48:12;101839.94;;;9.80;74.71
54194;BME280;40102;50.906;6.972;2023-04-09T01:50:39;101834.53;;;9.81;74.44
54194;BME280;40102;50.906;6.972;2023-04-09T01:53:04;101834.50;;;9.83;74.34
54194;BME280;40102;50.906;6.972;2023-04-09T01:55:30;101831.00;;;9.81;74.01
54194;BME280;40102;50.906;6.972;2023-04-09T01:57:55;101846.53;;;9.69;73.90
54194;BME280;40102;50.906;6.972;2023-04-09T02:00:22;101831.44;;;9.42;74.99
54194;BME280;40102;50.906;6.972;2023-04-09T02:02:58;101841.75;;;9.26;76.45
54194;BME280;40102;50.906;6.972;2023-04-09T02:05:28;101836.59;;;9.20;77.28
54194;BME280;40102;50.906;6.972;2023-04-09T02:07:57;101840.03;;;9.24;77.64
54194;BME280;40102;50.906;6.972;2023-04-09T02:10:26;101840.66;;;9.32;77.68
54194;BME280;40102;50.906;6.972;2023-04-09T02:12:54;101833.28;;;9.40;77.12
54194;BME280;40102;50.906;6.972;2023-04-09T02:15:20;101826.91;;;9.44;76.71
54194;BME280;40102;50.906;6.972;2023-04-09T02:17:46;101838.09;;;9.55;76.21
54194;BME280;40102;50.906;6.972;2023-04-09T02:20:18;101825.53;;;9.59;75.79
54194;BME280;40102;50.906;6.972;2023-04-09T02:22:46;101824.69;;;9.57;75.03
54194;BME280;40102;50.906;6.972;2023-04-09T02:25:13;101834.34;;;9.61;75.21
54194;BME280;40102;50.906;6.972;2023-04-09T02:27:39;101830.72;;;9.63;74.93
54194;BME280;40102;50.906;6.972;2023-04-09T02:30:05;101817.34;;;9.63;74.85
54194;BME280;40102;50.906;6.972;2023-04-09T02:32:31;101827.09;;;9.64;74.31
54194;BME280;40102;50.906;6.972;2023-04-09T02:34:56;101824.53;;;9.61;74.11
54194;BME280;40102;50.906;6.972;2023-04-09T02:37:21;101821.94;;;9.60;73.96
54194;BME280;40102;50.906;6.972;2023-04-09T02:39:47;101824.59;;;9.60;74.18
54194;BME280;40102;50.906;6.972;2023-04-09T02:42:12;101828.09;;;9.62;73.84
54194;BME280;40102;50.906;6.972;2023-04-09T02:44:38;101816.59;;;9.60;73.68
54194;BME280;40102;50.906;6.972;2023-04-09T02:47:03;101824.59;;;9.60;73.44
54194;BME280;40102;50.906;6.972;2023-04-09T02:49:28;101821.09;;;9.58;73.35
54194;BME280;40102;50.906;6.972;2023-04-09T02:51:54;101822.13;;;9.54;73.14
54194;BME280;40102;50.906;6.972;2023-04-09T02:54:19;101818.63;;;9.52;73.57
54194;BME280;40102;50.906;6.972;2023-04-09T02:56:45;101818.03;;;9.44;73.10
54194;BME280;40102;50.906;6.972;2023-04-09T02:59:10;101818.13;;;9.40;73.26
54194;BME280;40102;50.906;6.972;2023-04-09T03:01:35;101818.38;;;9.33;73.07
54194;BME280;40102;50.906;6.972;2023-04-09T03:04:01;101818.53;;;9.28;73.44
54194;BME280;40102;50.906;6.972;2023-04-09T03:06:26;101820.44;;;9.25;73.33
54194;BME280;40102;50.906;6.972;2023-04-09T03:08:52;101807.28;;;9.19;73.71
54194;BME280;40102;50.906;6.972;2023-04-09T03:11:17;101806.31;;;9.21;74.01
54194;BME280;40102;50.906;6.972;2023-04-09T03:13:43;101809.84;;;9.22;74.00
54194;BME280;40102;50.906;6.972;2023-04-09T03:16:08;101806.31;;;9.21;74.00
54194;BME280;40102;50.906;6.972;2023-04-09T03:18:35;101802.91;;;9.16;73.49
54194;BME280;40102;50.906;6.972;2023-04-09T03:21:04;101804.75;;;9.14;73.23
54194;BME280;40102;50.906;6.972;2023-04-09T03:23:30;101805.88;;;9.07;73.18
54194;BME280;40102;50.906;6.972;2023-04-09T03:26:05;101799.56;;;9.09;73.94
54194;BME280;40102;50.906;6.972;2023-04-09T03:28:31;101795.78;;;9.17;73.88
54194;BME280;40102;50.906;6.972;2023-04-09T03:30:56;101804.31;;;9.28;73.69
54194;BME280;40102;50.906;6.972;2023-04-09T03:33:23;101798.06;;;9.29;73.35
54194;BME280;40102;50.906;6.972;2023-04-09T03:35:49;101788.13;;;9.32;72.97
54194;BME280;40102;50.906;6.972;2023-04-09T03:38:14;101794.31;;;9.34;72.62
54194;BME280;40102;50.906;6.972;2023-04-09T03:40:39;101788.09;;;9.34;72.06
54194;BME280;40102;50.906;6.972;2023-04-09T03:43:07;101800.56;;;9.33;72.45
54194;BME280;40102;50.906;6.972;2023-04-09T03:45:32;101790.81;;;9.32;72.43
54194;BME280;40102;50.906;6.972;2023-04-09T03:47:57;101793.44;;;9.34;72.44
54194;BME280;40102;50.906;6.972;2023-04-09T03:50:23;101788.97;;;9.34;72.20
54194;BME280;40102;50.906;6.972;2023-04-09T03:52:48;101788.19;;;9.31;71.52
54194;BME280;40102;50.906;6.972;2023-04-09T03:55:13;101791.94;;;9.25;71.67
54194;BME280;40102;50.906;6.972;2023-04-09T03:57:39;101796.66;;;9.17;71.51
54194;BME280;40102;50.906;6.972;2023-04-09T04:00:05;101786.22;;;9.09;71.94
54194;BME280;40102;50.906;6.972;2023-04-09T04:02:30;101797.72;;;9.12;72.54
54194;BME280;40102;50.906;6.972;2023-04-09T04:04:58;101785.31;;;9.11;72.42
54194;BME280;40102;50.906;6.972;2023-04-09T04:07:24;101789.06;;;9.05;72.48
54194;BME280;40102;50.906;6.972;2023-04-09T04:09:50;101790.94;;;9.01;72.88
54194;BME280;40102;50.906;6.972;2023-04-09T04:12:15;101791.13;;;8.95;72.50
54194;BME280;40102;50.906;6.972;2023-04-09T04:14:41;101794.63;;;8.97;73.21
54194;BME280;40102;50.906;6.972;2023-04-09T04:17:06;101791.00;;;9.00;73.44
54194;BME280;40102;50.906;6.972;2023-04-09T04:19:31;101796.19;;;9.04;73.09
54194;BME280;40102;50.906;6.972;2023-04-09T04:21:57;101788.94;;;9.08;73.09
54194;BME280;40102;50.906;6.972;2023-04-09T04:24:22;101790.59;;;9.12;73.03
54194;BME280;40102;50.906;6.972;2023-04-09T04:26:47;101790.53;;;9.14;72.42
54194;BME280;40102;50.906;6.972;2023-04-09T04:29:13;101795.06;;;9.12;72.15
54194;BME280;40102;50.906;6.972;2023-04-09T04:31:38;101788.94;;;9.08;72.09
54194;BME280;40102;50.906;6.972;2023-04-09T04:34:04;101783.50;;;9.11;71.92
54194;BME280;40102;50.906;6.972;2023-04-09T04:36:29;101791.47;;;9.13;71.88
54194;BME280;40102;50.906;6.972;2023-04-09T04:38:55;101793.38;;;9.09;71.51
54194;BME280;40102;50.906;6.972;2023-04-09T04:41:20;101790.78;;;9.06;71.57
54194;BME280;40102;50.906;6.972;2023-04-09T04:43:46;101784.84;;;8.98;71.77
54194;BME280;40102;50.906;6.972;2023-04-09T04:46:11;101794.53;;;9.00;72.02
54194;BME280;40102;50.906;6.972;2023-04-09T04:48:37;101793.56;;;9.03;71.74
54194;BME280;40102;50.906;6.972;2023-04-09T04:51:02;101794.59;;;8.99;71.20
54194;BME280;40102;50.906;6.972;2023-04-09T04:53:27;101792.00;;;8.96;71.39
54194;BME280;40102;50.906;6.972;2023-04-09T04:55:53;101792.88;;;8.96;71.12
54194;BME280;40102;50.906;6.972;2023-04-09T04:58:19;101793.81;;;8.95;70.69
54194;BME280;40102;50.906;6.972;2023-04-09T05:00:45;101799.19;;;8.94;70.35
54194;BME280;40102;50.906;6.972;2023-04-09T05:03:11;101784.16;;;8.91;70.43
54194;BME280;40102;50.906;6.972;2023-04-09T05:05:36;101794.06;;;8.88;69.83
54194;BME280;40102;50.906;6.972;2023-04-09T05:08:01;101802.09;;;8.86;70.50
54194;BME280;40102;50.906;6.972;2023-04-09T05:10:27;101800.41;;;8.84;70.59
54194;BME280;40102;50.906;6.972;2023-04-09T05:12:52;101807.53;;;8.83;70.11
54194;BME280;40102;50.906;6.972;2023-04-09T05:15:17;101799.69;;;8.79;70.06
54194;BME280;40102;50.906;6.972;2023-04-09T05:17:43;101801.47;;;8.78;70.25
54194;BME280;40102;50.906;6.972;2023-04-09T05:20:10;101807.69;;;8.79;70.01
54194;BME280;40102;50.906;6.972;2023-04-09T05:22:35;101805.00;;;8.79;70.29
54194;BME280;40102;50.906;6.972;2023-04-09T05:25:01;101805.78;;;8.82;69.53
54194;BME280;40102;50.906;6.972;2023-04-09T05:27:27;101812.47;;;8.67;69.17
54194;BME280;40102;50.906;6.972;2023-04-09T05:29:53;101810.53;;;8.43;70.26
54194;BME280;40102;50.906;6.972;2023-04-09T05:32:18;101816.19;;;8.31;71.23
54194;BME280;40102;50.906;6.972;2023-04-09T05:34:44;101810.38;;;8.17;71.56
54194;BME280;40102;50.906;6.972;2023-04-09T05:37:09;101807.16;;;8.05;71.83
54194;BME280;40102;50.906;6.972;2023-04-09T05:39:35;101812.56;;;8.02;72.77
54194;BME280;40102;50.906;6.972;2023-04-09T05:42:00;101813.59;;;7.97;72.33
54194;BME280;40102;50.906;6.972;2023-04-09T05:44:26;101807.91;;;7.78;72.81
54194;BME280;40102;50.906;6.972;2023-04-09T05:46:51;101815.91;;;7.78;73.05
54194;BME280;40102;50.906;6.972;2023-04-09T05:49:17;101819.31;;;7.83;73.01
54194;BME280;40102;50.906;6.972;2023-04-09T05:51:42;101817.31;;;7.91;72.56
54194;BME280;40102;50.906;6.972;2023-04-09T05:54:08;101814.56;;;7.94;72.82
54194;BME280;40102;50.906;6.972;2023-04-09T05:56:33;101811.69;;;8.02;72.48
54194;BME280;40102;50.906;6.972;2023-04-09T05:58:59;101806.06;;;8.12;72.16
54194;BME280;40102;50.906;6.972;2023-04-09T06:01:24;101816.28;;;8.28;71.90
54194;BME280;40102;50.906;6.972;2023-04-09T06:03:50;101817.13;;;8.30;70.67
54194;BME280;40102;50.906;6.972;2023-04-09T06:06:15;101814.53;;;8.27;70.71
54194;BME280;40102;50.906;6.972;2023-04-09T06:08:41;101815.59;;;8.21;71.22
54194;BME280;40102;50.906;6.972;2023-04-09T06:11:10;101817.25;;;8.25;71.51
54194;BME280;40102;50.906;6.972;2023-04-09T06:13:36;101812.78;;;8.26;70.78
54194;BME280;40102;50.906;6.972;2023-04-09T06:16:06;101822.50;;;8.28;70.83
54194;BME280;40102;50.906;6.972;2023-04-09T06:18:31;101817.34;;;8.22;71.12
54194;BME280;40102;50.906;6.972;2023-04-09T06:21:04;101819.81;;;8.28;71.59
54194;BME280;40102;50.906;6.972;2023-04-09T06:26:51;101826.03;;;8.29;70.90
54194;BME280;40102;50.906;6.972;2023-04-09T06:29:17;101812.13;;;8.18;70.86
54194;BME280;40102;50.906;6.972;2023-04-09T06:31:42;101817.47;;;8.18;71.30
54194;BME280;40102;50.906;6.972;2023-04-09T06:34:08;101813.88;;;8.19;71.05
54194;BME280;40102;50.906;6.972;2023-04-09T06:36:33;101809.63;;;8.11;71.31
54194;BME280;40102;50.906;6.972;2023-04-09T06:39:00;101814.31;;;8.03;71.96
54194;BME280;40102;50.906;6.972;2023-04-09T06:41:26;101820.59;;;8.01;72.20
54194;BME280;40102;50.906;6.972;2023-04-09T06:43:52;101823.13;;;8.05;72.73
54194;BME280;40102;50.906;6.972;2023-04-09T06:46:17;101821.91;;;8.17;72.87
54194;BME280;40102;50.906;6.972;2023-04-09T06:48:45;101822.53;;;8.27;71.07
54194;BME280;40102;50.906;6.972;2023-04-09T06:51:10;101837.47;;;8.34;71.25
54194;BME280;40102;50.906;6.972;2023-04-09T06:53:39;101834.81;;;8.34;70.26
54194;BME280;40102;50.906;6.972;2023-04-09T06:56:05;101833.19;;;8.27;70.87
54194;BME280;40102;50.906;6.972;2023-04-09T06:58:30;101835.72;;;8.33;71.97
54194;BME280;40102;50.906;6.972;2023-04-09T07:00:56;101838.13;;;8.42;72.10
54194;BME280;40102;50.906;6.972;2023-04-09T07:03:21;101837.84;;;8.51;71.22
54194;BME280;40102;50.906;6.972;2023-04-09T07:05:47;101835.88;;;8.58;69.65
54194;BME280;40102;50.906;6.972;2023-04-09T07:08:12;101824.19;;;8.62;69.67
54194;BME280;40102;50.906;6.972;2023-04-09T07:10:38;101834.72;;;8.66;69.54
54194;BME280;40102;50.906;6.972;2023-04-09T07:13:03;101838.97;;;8.73;69.63
54194;BME280;40102;50.906;6.972;2023-04-09T07:15:29;101837.03;;;8.79;69.29
54194;BME280;40102;50.906;6.972;2023-04-09T07:17:54;101843.19;;;8.81;69.08
54194;BME280;40102;50.906;6.972;2023-04-09T07:20:21;101839.38;;;8.89;69.14
54194;BME280;40102;50.906;6.972;2023-04-09T07:22:47;101847.09;;;8.98;68.47
54194;BME280;40102;50.906;6.972;2023-04-09T07:25:13;101843.25;;;9.07;67.98
54194;BME280;40102;50.906;6.972;2023-04-09T07:27:38;101838.09;;;9.01;67.77
54194;BME280;40102;50.906;6.972;2023-04-09T07:30:04;101848.00;;;8.97;68.61
54194;BME280;40102;50.906;6.972;2023-04-09T07:32:30;101850.47;;;9.03;68.98
54194;BME280;40102;50.906;6.972;2023-04-09T07:34:55;101854.03;;;9.04;68.54
54194;BME280;40102;50.906;6.972;2023-04-09T07:37:21;101846.22;;;8.98;68.45
54194;BME280;40102;50.906;6.972;2023-04-09T07:39:47;101853.34;;;8.97;68.63
54194;BME280;40102;50.906;6.972;2023-04-09T07:42:13;101847.22;;;8.94;69.13
54194;BME280;40102;50.906;6.972;2023-04-09T07:44:38;101848.88;;;8.98;69.18
54194;BME280;40102;50.906;6.972;2023-04-09T07:47:05;101854.94;;;9.03;69.00
54194;BME280;40102;50.906;6.972;2023-04-09T07:49:31;101848.59;;;9.07;68.67
54194;BME280;40102;50.906;6.972;2023-04-09T07:51:58;101842.09;;;9.16;68.38
54194;BME280;40102;50.906;6.972;2023-04-09T07:54:24;101850.78;;;9.22;68.40
54194;BME280;40102;50.906;6.972;2023-04-09T07:56:49;101839.16;;;9.23;68.58
54194;BME280;40102;50.906;6.972;2023-04-09T07:59:15;101841.63;;;9.29;68.28
54194;BME280;40102;50.906;6.972;2023-04-09T08:01:41;101843.22;;;9.35;68.33
54194;BME280;40102;50.906;6.972;2023-04-09T08:04:07;101848.53;;;9.36;67.66
54194;BME280;40102;50.906;6.972;2023-04-09T08:06:32;101853.81;;;9.38;67.68
54194;BME280;40102;50.906;6.972;2023-04-09T08:08:58;101849.19;;;9.43;67.82
54194;BME280;40102;50.906;6.972;2023-04-09T08:11:23;101840.31;;;9.43;67.16
54194;BME280;40102;50.906;6.972;2023-04-09T08:13:52;101836.78;;;9.42;66.81
54194;BME280;40102;50.906;6.972;2023-04-09T08:16:17;101854.28;;;9.51;66.61
54194;BME280;40102;50.906;6.972;2023-04-09T08:18:43;101846.13;;;9.55;66.88
54194;BME280;40102;50.906;6.972;2023-04-09T08:21:08;101844.06;;;9.63;66.82
54194;BME280;40102;50.906;6.972;2023-04-09T08:23:33;101843.97;;;9.66;66.56
54194;BME280;40102;50.906;6.972;2023-04-09T08:25:59;101848.00;;;9.78;66.28
54194;BME280;40102;50.906;6.972;2023-04-09T08:28:24;101843.44;;;9.82;65.76
54194;BME280;40102;50.906;6.972;2023-04-09T08:30:50;101848.72;;;9.83;63.57
54194;BME280;40102;50.906;6.972;2023-04-09T08:33:16;101845.19;;;9.83;62.58
54194;BME280;40102;50.906;6.972;2023-04-09T08:42:25;101843.31;;;9.85;61.67
54194;BME280;40102;50.906;6.972;2023-04-09T08:44:51;101843.16;;;9.89;61.87
54194;BME280;40102;50.906;6.972;2023-04-09T08:47:18;101842.94;;;9.95;62.58
54194;BME280;40102;50.906;6.972;2023-04-09T08:49:44;101840.88;;;10.03;63.03
54194;BME280;40102;50.906;6.972;2023-04-09T08:52:12;101846.06;;;10.08;62.85
54194;BME280;40102;50.906;6.972;2023-04-09T08:54:40;101844.09;;;10.13;63.01
54194;BME280;40102;50.906;6.972;2023-04-09T08:57:05;101847.34;;;10.23;62.71
54194;BME280;40102;50.906;6.972;2023-04-09T08:59:31;101841.88;;;10.26;62.55
54194;BME280;40102;50.906;6.972;2023-04-09T09:02:10;101842.47;;;10.34;62.65
54194;BME280;40102;50.906;6.972;2023-04-09T09:04:46;101836.09;;;10.38;62.24
54194;BME280;40102;50.906;6.972;2023-04-09T09:07:12;101843.91;;;10.43;61.76
54194;BME280;40102;50.906;6.972;2023-04-09T09:09:54;101834.84;;;10.47;61.99
54194;BME280;40102;50.906;6.972;2023-04-09T09:12:37;101829.25;;;10.53;62.50
54194;BME280;40102;50.906;6.972;2023-04-09T09:15:04;101834.44;;;10.57;61.70
54194;BME280;40102;50.906;6.972;2023-04-09T09:17:30;101834.13;;;10.65;61.94
54194;BME280;40102;50.906;6.972;2023-04-09T09:19:56;101827.69;;;10.70;60.52
54194;BME280;40102;50.906;6.972;2023-04-09T09:22:21;101826.75;;;10.71;59.91
54194;BME280;40102;50.906;6.972;2023-04-09T09:24:48;101827.25;;;10.81;53.35
54194;BME280;40102;50.906;6.972;2023-04-09T09:27:34;101825.28;;;10.86;54.08
54194;BME280;40102;50.906;6.972;2023-04-09T09:30:07;101817.94;;;10.91;54.46
54194;BME280;40102;50.906;6.972;2023-04-09T09:32:35;101824.09;;;10.93;54.34
54194;BME280;40102;50.906;6.972;2023-04-09T09:35:05;101820.19;;;11.02;55.07
54194;BME280;40102;50.906;6.972;2023-04-09T09:37:31;101817.94;;;11.13;54.84
54194;BME280;40102;50.906;6.972;2023-04-09T09:39:57;101813.97;;;11.23;55.47
54194;BME280;40102;50.906;6.972;2023-04-09T09:42:23;101809.34;;;11.27;54.61
54194;BME280;40102;50.906;6.972;2023-04-09T09:44:49;101804.59;;;11.33;54.49
54194;BME280;40102;50.906;6.972;2023-04-09T09:47:17;101809.78;;;11.38;54.36
54194;BME280;40102;50.906;6.972;2023-04-09T09:49:44;101803.59;;;11.36;54.58
54194;BME280;40102;50.906;6.972;2023-04-09T09:52:12;101811.63;;;11.36;55.72
54194;BME280;40102;50.906;6.972;2023-04-09T09:54:42;101796.25;;;11.41;54.62
54194;BME280;40102;50.906;6.972;2023-04-09T09:57:12;101801.41;;;11.46;54.54
54194;BME280;40102;50.906;6.972;2023-04-09T09:59:43;101788.81;;;11.48;53.82
54194;BME280;40102;50.906;6.972;2023-04-09T10:02:19;101803.69;;;11.55;53.25
54194;BME280;40102;50.906;6.972;2023-04-09T10:04:48;101796.00;;;11.47;52.62
54194;BME280;40102;50.906;6.972;2023-04-09T10:07:14;101792.84;;;11.58;54.25
54194;BME280;40102;50.906;6.972;2023-04-09T10:09:46;101794.06;;;11.71;55.14
54194;BME280;40102;50.906;6.972;2023-04-09T10:12:12;101790.31;;;11.75;52.63
54194;BME280;40102;50.906;6.972;2023-04-09T10:14:39;101790.16;;;11.80;52.76
54194;BME280;40102;50.906;6.972;2023-04-09T10:17:04;101781.31;;;11.78;53.54
54194;BME280;40102;50.906;6.972;2023-04-09T10:19:34;101781.59;;;11.70;53.67
54194;BME280;40102;50.906;6.972;2023-04-09T10:22:13;101780.72;;;11.69;53.55
54194;BME280;40102;50.906;6.972;2023-04-09T10:24:40;101781.59;;;11.70;53.66
54194;BME280;40102;50.906;6.972;2023-04-09T10:27:14;101769.81;;;11.74;53.90
54194;BME280;40102;50.906;6.972;2023-04-09T10:29:47;101782.91;;;11.82;54.09
54194;BME280;40102;50.906;6.972;2023-04-09T10:32:18;101782.19;;;11.78;53.67
54194;BME280;40102;50.906;6.972;2023-04-09T10:34:45;101780.63;;;11.93;52.96
54194;BME280;40102;50.906;6.972;2023-04-09T10:37:16;101784.03;;;11.96;53.53
54194;BME280;40102;50.906;6.972;2023-04-09T10:39:45;101783.50;;;12.09;53.15
54194;BME280;40102;50.906;6.972;2023-04-09T10:42:18;101776.97;;;12.14;53.60
54194;BME280;40102;50.906;6.972;2023-04-09T10:44:46;101782.13;;;12.19;53.83
54194;BME280;40102;50.906;6.972;2023-04-09T10:47:32;101778.03;;;12.30;53.50
54194;BME280;40102;50.906;6.972;2023-04-09T10:49:59;101775.19;;;12.33;52.98
54194;BME280;40102;50.906;6.972;2023-04-09T10:52:39;101761.50;;;12.40;52.77
54194;BME280;40102;50.906;6.972;2023-04-09T10:55:05;101760.41;;;12.44;52.97
54194;BME280;40102;50.906;6.972;2023-04-09T10:57:31;101764.03;;;12.61;53.26
54194;BME280;40102;50.906;6.972;2023-04-09T10:59:56;101771.22;;;12.80;52.40
54194;BME280;40102;50.906;6.972;2023-04-09T11:08:09;101756.28;;;12.74;50.10
54194;BME280;40102;50.906;6.972;2023-04-09T11:10:36;101758.44;;;12.66;50.42
54194;BME280;40102;50.906;6.972;2023-04-09T11:13:02;101757.16;;;12.56;50.24
54194;BME280;40102;50.906;6.972;2023-04-09T11:15:28;101754.53;;;12.54;50.87
54194;BME280;40102;50.906;6.972;2023-04-09T11:17:53;101757.28;;;12.53;51.28
54194;BME280;40102;50.906;6.972;2023-04-09T11:20:21;101748.13;;;12.76;51.48
54194;BME280;40102;50.906;6.972;2023-04-09T11:22:49;101743.38;;;13.00;51.64
54194;BME280;40102;50.906;6.972;2023-04-09T11:25:19;101734.56;;;13.15;50.21
54194;BME280;40102;50.906;6.972;2023-04-09T11:27:45;101740.13;;;13.29;50.89
54194;BME280;40102;50.906;6.972;2023-04-09T11:30:11;101729.06;;;13.35;51.15
54194;BME280;40102;50.906;6.972;2023-04-09T11:32:37;101723.94;;;13.31;51.35
54194;BME280;40102;50.906;6.972;2023-04-09T11:35:02;101727.50;;;13.31;49.99
54194;BME280;40102;50.906;6.972;2023-04-09T11:37:28;101738.00;;;13.18;49.74
54194;BME280;40102;50.906;6.972;2023-04-09T11:39:53;101730.56;;;13.23;49.73
54194;BME280;40102;50.906;6.972;2023-04-09T11:42:20;101727.72;;;13.26;49.80
54194;BME280;40102;50.906;6.972;2023-04-09T11:44:49;101729.16;;;13.34;49.92
54194;BME280;40102;50.906;6.972;2023-04-09T11:47:15;101733.59;;;13.35;50.56
54194;BME280;40102;50.906;6.972;2023-04-09T11:49:44;101729.31;;;13.31;50.45
54194;BME280;40102;50.906;6.972;2023-04-09T11:52:12;101728.69;;;13.25;50.02
54194;BME280;40102;50.906;6.972;2023-04-09T11:54:37;101723.38;;;13.24;50.50
54194;BME280;40102;50.906;6.972;2023-04-09T11:57:03;101730.81;;;13.19;50.79
54194;BME280;40102;50.906;6.972;2023-04-09T11:59:29;101730.94;;;13.16;50.17
54194;BME280;40102;50.906;6.972;2023-04-09T12:01:58;101726.31;;;13.19;50.35
54194;BME280;40102;50.906;6.972;2023-04-09T12:04:23;101728.69;;;13.25;50.36
54194;BME280;40102;50.906;6.972;2023-04-09T12:06:49;101724.25;;;13.24;50.28
54194;BME280;40102;50.906;6.972;2023-04-09T12:09:15;101722.59;;;13.22;49.33
54194;BME280;40102;50.906;6.972;2023-04-09T12:11:44;101726.38;;;13.18;48.76
54194;BME280;40102;50.906;6.972;2023-04-09T12:14:14;101728.31;;;13.14;49.54
54194;BME280;40102;50.906;6.972;2023-04-09T12:16:40;101721.00;;;13.18;50.12
54194;BME280;40102;50.906;6.972;2023-04-09T12:19:09;101725.28;;;13.22;50.09
54194;BME280;40102;50.906;6.972;2023-04-09T12:24:13;101720.16;;;13.35;49.54
54194;BME280;40102;50.906;6.972;2023-04-09T12:26:39;101721.09;;;13.34;49.66
54194;BME280;40102;50.906;6.972;2023-04-09T12:29:05;101716.81;;;13.29;49.37
54194;BME280;40102;50.906;6.972;2023-04-09T12:31:30;101716.03;;;13.27;48.97
54194;BME280;40102;50.906;6.972;2023-04-09T12:33:56;101716.34;;;13.21;49.47
54194;BME280;40102;50.906;6.972;2023-04-09T12:36:21;101722.59;;;13.22;49.90
54194;BME280;40102;50.906;6.972;2023-04-09T12:38:48;101710.09;;;13.21;49.27
54194;BME280;40102;50.906;6.972;2023-04-09T12:41:13;101715.56;;;13.19;49.08
54194;BME280;40102;50.906;6.972;2023-04-09T12:43:38;101717.28;;;13.20;49.12
54194;BME280;40102;50.906;6.972;2023-04-09T12:46:04;101708.22;;;13.23;49.21
54194;BME280;40102;50.906;6.972;2023-04-09T12:48:29;101715.16;;;13.27;49.14
54194;BME280;40102;50.906;6.972;2023-04-09T12:50:55;101702.75;;;13.24;48.92
54194;BME280;40102;50.906;6.972;2023-04-09T12:53:20;101713.28;;;13.29;49.28
54194;BME280;40102;50.906;6.972;2023-04-09T12:55:46;101702.44;;;13.31;49.10
54194;BME280;40102;50.906;6.972;2023-04-09T12:58:11;101700.63;;;13.31;48.76
54194;BME280;40102;50.906;6.972;2023-04-09T13:00:36;101713.66;;;13.39;48.99
54194;BME280;40102;50.906;6.972;2023-04-09T13:03:02;101708.19;;;13.57;49.79
54194;BME280;40102;50.906;6.972;2023-04-09T13:05:27;101704.69;;;13.73;48.92
54194;BME280;40102;50.906;6.972;2023-04-09T13:07:55;101701.44;;;13.83;48.26
54194;BME280;40102;50.906;6.972;2023-04-09T13:10:21;101688.28;;;13.94;48.17
54194;BME280;40102;50.906;6.972;2023-04-09T13:12:46;101688.97;;;13.98;47.52
54194;BME280;40102;50.906;6.972;2023-04-09T13:15:12;101695.84;;;14.04;48.04
54194;BME280;40102;50.906;6.972;2023-04-09T13:17:37;101690.13;;;14.10;46.70
54194;BME280;40102;50.906;6.972;2023-04-09T13:20:03;101685.09;;;14.04;47.01